Time;durP1;ratioP1;P1;durP2;ratioP2;P2;SDS_P1;SDS_P2;PMS_P1;PMS_P2;Temp;Humidity;BMP_temperature;BMP_pressure;BME280_temperature;BME280_humidity;BME280_pressure;Samples;Min_cycle;Max_cycle;Signal;HPM_P1;HPM_P2
2023/08/21 00:01:27;;;;;;;6.55;6.18;;;;;;;19.53;100.00;101519.88;6117786;23;20080;-69
2023/08/21 00:03:54;;;;;;;7.00;6.50;;;;;;;19.22;100.00;101480.59;6092572;23;20025;-68
2023/08/21 00:06:22;;;;;;;6.70;5.90;;;;;;;19.19;100.00;101478.19;6120768;23;20023;-69
2023/08/21 00:08:48;;;;;;;6.63;6.03;;;;;;;18.85;100.00;101416.91;6087100;23;20029;-69
2023/08/21 00:11:15;;;;;;;6.90;6.15;;;;;;;19.04;100.00;101457.13;6118472;23;20041;-69
2023/08/21 00:13:44;;;;;;;6.55;6.05;;;;;;;19.00;100.00;101463.59;6090247;23;20100;-69
2023/08/21 00:16:11;;;;;;;6.55;6.15;;;;;;;19.00;100.00;101473.41;6111735;23;20025;-69
2023/08/21 00:18:37;;;;;;;6.82;6.07;;;;;;;19.18;100.00;101513.75;6092340;23;20053;-69
2023/08/21 00:21:04;;;;;;;6.35;5.95;;;;;;;19.18;100.00;101519.06;6112088;23;21102;-69
2023/08/21 00:23:31;;;;;;;6.43;6.03;;;;;;;18.61;100.00;101441.69;6116859;23;20037;-70
2023/08/21 00:25:57;;;;;;;6.82;6.32;;;;;;;18.81;100.00;101480.13;6116079;23;20103;-71
2023/08/21 00:28:24;;;;;;;6.70;6.10;;;;;;;19.11;100.00;101530.19;6082932;23;20024;-69
2023/08/21 00:30:50;;;;;;;5.88;5.55;;;;;;;18.70;100.00;101478.25;6085453;23;20069;-69
2023/08/21 00:33:17;;;;;;;6.50;6.00;;;;;;;18.95;100.00;101542.09;6061106;23;20070;-69
2023/08/21 00:35:43;;;;;;;6.07;5.78;;;;;;;18.42;100.00;101457.28;6090370;23;20037;-69
2023/08/21 00:38:12;;;;;;;6.93;6.38;;;;;;;18.74;100.00;101493.00;6083465;23;20096;-68
2023/08/21 00:40:38;;;;;;;6.78;6.10;;;;;;;18.80;100.00;101517.44;6085655;23;20081;-69
2023/08/21 00:43:05;;;;;;;6.55;6.15;;;;;;;18.70;100.00;101494.19;6098819;23;20029;-69
2023/08/21 00:45:31;;;;;;;6.28;5.90;;;;;;;18.94;100.00;101538.56;6058547;23;20022;-69
2023/08/21 00:47:58;;;;;;;6.57;6.18;;;;;;;18.47;100.00;101463.13;6082984;23;20030;-70
2023/08/21 00:50:24;;;;;;;6.22;5.80;;;;;;;18.65;100.00;101490.16;6083240;23;20038;-68
2023/08/21 00:52:51;;;;;;;6.63;6.13;;;;;;;18.60;100.00;101477.22;6087548;23;20033;-71
2023/08/21 00:55:17;;;;;;;5.75;5.45;;;;;;;18.55;100.00;101482.03;6085927;23;20629;-70
2023/08/21 00:57:45;;;;;;;5.80;5.50;;;;;;;18.53;100.00;101489.25;6090331;23;20725;-69
2023/08/21 01:00:12;;;;;;;6.05;5.75;;;;;;;18.83;100.00;101539.38;6101483;23;20032;-70
2023/08/21 01:02:39;;;;;;;6.70;6.30;;;;;;;18.79;100.00;101539.69;6095709;23;20032;-69
2023/08/21 01:05:13;;;;;;;6.35;5.90;;;;;;;18.76;100.00;101542.53;6093587;23;20518;-69
2023/08/21 01:07:51;;;;;;;6.32;5.88;;;;;;;18.51;100.00;101515.94;6113144;23;20104;-70
2023/08/21 01:10:43;;;;;;;6.80;6.00;;;;;;;18.67;100.00;101557.38;6112095;23;20087;-69
2023/08/21 01:13:27;;;;;;;6.50;6.05;;;;;;;18.66;100.00;101559.19;6066777;23;20097;-69
2023/08/21 01:15:55;;;;;;;6.50;5.95;;;;;;;18.32;100.00;101516.44;6059466;23;20761;-69
2023/08/21 01:18:22;;;;;;;6.32;5.95;;;;;;;18.46;100.00;101539.38;6089929;23;20025;-69
2023/08/21 01:20:49;;;;;;;6.22;5.88;;;;;;;18.47;100.00;101538.38;6092001;23;20563;-69
2023/08/21 01:23:30;;;;;;;6.13;5.82;;;;;;;18.28;100.00;101517.63;6113743;23;20436;-69
2023/08/21 01:25:56;;;;;;;6.45;6.05;;;;;;;18.69;100.00;101574.91;6091251;23;20023;-69
2023/08/21 01:28:23;;;;;;;6.00;5.70;;;;;;;18.20;100.00;101496.06;6099218;23;20503;-69
2023/08/21 01:30:54;;;;;;;6.28;5.88;;;;;;;18.64;100.00;101571.75;6090613;23;20017;-69
2023/08/21 01:33:22;;;;;;;8.05;6.28;;;;;;;18.36;100.00;101543.63;6085678;23;20126;-69
2023/08/21 01:35:50;;;;;;;5.88;5.57;;;;;;;18.25;100.00;101531.09;6111594;23;20017;-69
2023/08/21 01:38:16;;;;;;;6.30;5.90;;;;;;;18.57;100.00;101585.59;6089958;23;20549;-70
2023/08/21 01:40:43;;;;;;;5.90;5.60;;;;;;;18.52;100.00;101575.25;6110981;23;20092;-72
2023/08/21 01:43:09;;;;;;;6.55;6.15;;;;;;;18.56;100.00;101582.06;6113074;23;20062;-69
2023/08/21 01:45:36;;;;;;;6.38;5.93;;;;;;;18.62;100.00;101589.63;6114446;23;20081;-68
2023/08/21 01:48:02;;;;;;;6.85;6.25;;;;;;;18.61;100.00;101574.63;6073537;23;20079;-69
2023/08/21 01:50:29;;;;;;;6.40;6.00;;;;;;;18.28;100.00;101541.53;6065757;23;20024;-68
2023/08/21 01:52:55;;;;;;;6.38;5.97;;;;;;;18.50;100.00;101577.19;6068189;23;20030;-69
2023/08/21 01:55:22;;;;;;;6.50;6.10;;;;;;;18.52;100.00;101597.41;6094121;23;20054;-69
2023/08/21 01:57:48;;;;;;;6.05;5.65;;;;;;;18.50;100.00;101590.47;6092714;23;20598;-69
2023/08/21 02:00:15;;;;;;;6.22;5.82;;;;;;;17.71;100.00;101462.31;6088744;23;20049;-69
2023/08/21 02:02:41;;;;;;;6.10;5.60;;;;;;;18.13;100.00;101539.94;6063793;23;20002;-69
2023/08/21 02:05:09;;;;;;;6.28;5.88;;;;;;;18.38;100.00;101584.25;6090042;23;20036;-69
2023/08/21 02:07:35;;;;;;;6.82;5.97;;;;;;;18.34;100.00;101586.28;6091934;23;20416;-70
2023/08/21 02:10:01;;;;;;;6.47;6.07;;;;;;;18.41;100.00;101596.47;6089041;23;20009;-69
2023/08/21 02:12:28;;;;;;;6.47;5.97;;;;;;;18.31;100.00;101578.50;6104383;23;20057;-69
2023/08/21 02:14:54;;;;;;;6.53;6.05;;;;;;;18.27;100.00;101597.44;6115509;23;20039;-69
2023/08/21 02:17:21;;;;;;;6.32;5.90;;;;;;;17.87;100.00;101534.66;6098670;23;20488;-69
2023/08/21 02:19:47;;;;;;;6.63;6.05;;;;;;;18.23;100.00;101601.28;6088977;23;20049;-69
2023/08/21 02:22:13;;;;;;;8.13;6.20;;;;;;;17.84;100.00;101552.59;6088922;23;20037;-69
2023/08/21 02:24:40;;;;;;;6.47;6.07;;;;;;;17.79;100.00;101544.94;6089489;23;20084;-69
2023/08/21 02:27:06;;;;;;;6.72;6.22;;;;;;;17.97;100.00;101547.31;6082871;23;20081;-69
2023/08/21 02:29:33;;;;;;;6.70;6.00;;;;;;;17.89;100.00;101545.19;6088973;23;20054;-70
2023/08/21 02:31:59;;;;;;;6.63;6.22;;;;;;;18.10;100.00;101575.56;6031292;23;20108;-70
2023/08/21 02:34:26;;;;;;;6.30;5.90;;;;;;;17.84;100.00;101550.81;6058882;23;20080;-72
2023/08/21 02:36:53;;;;;;;6.30;5.90;;;;;;;17.84;100.00;101536.66;6058977;23;20026;-71
2023/08/21 02:39:19;;;;;;;6.88;6.28;;;;;;;17.82;100.00;101549.19;6064727;23;20349;-68
2023/08/21 02:41:48;;;;;;;6.13;5.82;;;;;;;18.02;100.00;101575.25;6101500;23;20089;-68
2023/08/21 02:44:14;;;;;;;6.85;6.28;;;;;;;18.18;100.00;101590.09;6120378;23;20025;-69
2023/08/21 02:46:41;;;;;;;8.07;5.90;;;;;;;18.20;100.00;101591.72;6115267;23;20026;-68
2023/08/21 02:49:07;;;;;;;9.63;6.43;;;;;;;18.21;100.00;101592.56;6096548;23;20435;-70
2023/08/21 02:51:34;;;;;;;6.55;6.15;;;;;;;18.20;100.00;101591.72;6118231;23;20021;-68
2023/08/21 02:54:00;;;;;;;6.30;5.85;;;;;;;17.93;100.00;101555.47;6118507;23;20087;-68
2023/08/21 02:56:27;;;;;;;6.65;6.13;;;;;;;18.20;100.00;101585.53;6120004;23;20026;-68
2023/08/21 02:58:53;;;;;;;6.28;5.88;;;;;;;17.97;100.00;101558.78;6087523;23;20033;-69
2023/08/21 03:01:20;;;;;;;6.13;5.72;;;;;;;18.20;100.00;101597.03;6115927;23;20020;-69
2023/08/21 03:03:46;;;;;;;6.50;6.00;;;;;;;18.32;100.00;101603.25;6119978;23;20425;-69
2023/08/21 03:06:13;;;;;;;7.32;6.80;;;;;;;18.20;100.00;101580.22;6117420;23;20041;-69
2023/08/21 03:08:39;;;;;;;6.55;6.05;;;;;;;17.99;100.00;101546.22;6115255;23;20088;-72
2023/08/21 03:11:06;;;;;;;6.53;6.03;;;;;;;17.86;100.00;101537.41;6112331;23;20025;-69
2023/08/21 03:14:11;;;;;;;15.90;15.00;;;;;;;17.52;100.00;101490.16;6030461;23;20186;-68
2023/08/21 03:16:38;;;;;;;6.30;5.90;;;;;;;18.18;100.00;101596.28;6059828;23;20041;-70
2023/08/21 03:19:04;;;;;;;6.30;5.82;;;;;;;18.13;100.00;101601.06;6057159;23;20061;-69
2023/08/21 03:21:31;;;;;;;6.07;5.68;;;;;;;17.84;100.00;101548.16;6068209;23;20025;-69
2023/08/21 03:23:59;;;;;;;6.38;5.88;;;;;;;17.75;100.00;101530.19;6062476;23;20760;-69
2023/08/21 03:26:29;;;;;;;7.10;6.55;;;;;;;17.81;100.00;101552.81;6082977;23;20026;-69
2023/08/21 03:28:56;;;;;;;6.45;6.03;;;;;;;18.09;100.00;101611.03;6088840;23;20379;-69
2023/08/21 03:31:22;;;;;;;6.70;6.30;;;;;;;18.08;100.00;101612.00;6083743;23;20017;-69
2023/08/21 03:33:49;;;;;;;6.35;5.85;;;;;;;18.05;100.00;101614.88;6088463;23;20029;-69
2023/08/21 03:36:15;;;;;;;6.63;6.13;;;;;;;18.02;100.00;101615.09;6084677;23;20014;-69
2023/08/21 03:38:42;;;;;;;7.63;6.03;;;;;;;17.80;100.00;101572.31;6085592;23;20010;-69
2023/08/21 03:41:08;;;;;;;6.38;5.97;;;;;;;18.01;100.00;101610.72;6083329;23;20040;-69
2023/08/21 03:43:35;;;;;;;6.00;5.70;;;;;;;17.98;100.00;101610.06;6062069;23;20561;-70
2023/08/21 03:46:02;;;;;;;6.38;5.95;;;;;;;17.79;100.00;101582.09;6057376;23;20583;-69
2023/08/21 03:48:28;;;;;;;6.63;6.13;;;;;;;17.94;100.00;101607.66;6055955;23;20030;-70
2023/08/21 03:50:55;;;;;;;5.90;5.50;;;;;;;18.02;100.00;101608.91;6057149;23;20025;-71
2023/08/21 03:53:21;;;;;;;7.15;6.45;;;;;;;17.85;100.00;101587.03;6087502;23;20033;-69
2023/08/21 03:55:48;;;;;;;5.95;5.55;;;;;;;18.02;100.00;101620.41;6089334;23;20022;-68
2023/08/21 03:58:15;;;;;;;6.90;6.30;;;;;;;18.03;100.00;101615.94;6089531;23;20017;-68
2023/08/21 04:00:41;;;;;;;6.32;5.93;;;;;;;18.06;100.00;101621.91;6086096;23;20166;-69
2023/08/21 04:03:08;;;;;;;6.07;5.63;;;;;;;18.05;100.00;101600.75;6087106;23;20025;-69
2023/08/21 04:05:34;;;;;;;6.45;5.85;;;;;;;18.02;100.00;101612.44;6084106;23;21008;-69
2023/08/21 04:08:01;;;;;;;6.22;5.75;;;;;;;17.77;100.00;101576.06;6089938;23;20021;-70
2023/08/21 04:10:27;;;;;;;7.45;6.38;;;;;;;17.90;100.00;101605.28;6088698;23;20026;-69
2023/08/21 04:12:53;;;;;;;6.30;5.80;;;;;;;18.01;100.00;101628.47;6037345;23;20568;-69
2023/08/21 04:15:20;;;;;;;6.50;6.10;;;;;;;18.02;100.00;101624.84;6058863;23;20036;-69
2023/08/21 04:17:46;;;;;;;6.60;6.10;;;;;;;17.80;100.00;101594.44;6055647;23;20030;-69
2023/08/21 04:20:13;;;;;;;6.20;5.80;;;;;;;17.98;100.00;101618.91;6057717;23;20605;-69
2023/08/21 04:22:39;;;;;;;7.47;6.25;;;;;;;17.57;100.00;101571.25;6066931;23;20089;-70
2023/08/21 04:25:07;;;;;;;6.55;6.03;;;;;;;17.44;100.00;101572.09;6067369;23;20179;-69
2023/08/21 04:27:33;;;;;;;6.72;6.20;;;;;;;17.76;100.00;101624.81;6059373;23;20085;-69
2023/08/21 04:30:00;;;;;;;6.30;5.90;;;;;;;17.65;100.00;101616.72;6065994;23;20500;-68
2023/08/21 04:32:27;;;;;;;6.63;6.05;;;;;;;17.62;100.00;101607.16;6084539;23;20037;-68
2023/08/21 04:34:54;;;;;;;6.82;6.28;;;;;;;17.79;100.00;101629.06;6079345;23;20675;-68
2023/08/21 04:37:20;;;;;;;6.85;6.35;;;;;;;17.82;100.00;101644.75;6059633;23;20088;-68
2023/08/21 04:39:51;;;;;;;6.60;5.95;;;;;;;17.78;100.00;101644.16;6062473;23;20036;-68
2023/08/21 04:42:17;;;;;;;6.45;5.85;;;;;;;17.54;100.00;101610.31;6061289;23;20101;-69
2023/08/21 04:44:44;;;;;;;6.57;5.85;;;;;;;17.49;100.00;101596.50;6032210;23;20022;-67
2023/08/21 04:47:19;;;;;;;6.63;6.18;;;;;;;17.83;100.00;101655.31;6053972;23;20097;-67
2023/08/21 04:49:46;;;;;;;6.35;5.65;;;;;;;17.85;100.00;101653.41;6027532;23;20098;-68
2023/08/21 04:52:13;;;;;;;6.68;6.07;;;;;;;17.15;100.00;101539.53;6054746;23;20507;-67
2023/08/21 04:54:39;;;;;;;6.10;5.60;;;;;;;17.97;100.00;101641.09;6032506;23;20019;-68
2023/08/21 04:57:05;;;;;;;6.30;5.90;;;;;;;17.97;100.00;101642.91;6073248;23;20551;-68
2023/08/21 04:59:32;;;;;;;6.70;5.90;;;;;;;18.03;100.00;101647.81;6060955;23;20030;-67
2023/08/21 05:01:58;;;;;;;6.80;6.03;;;;;;;17.86;100.00;101614.41;6090386;23;20085;-67
2023/08/21 05:04:25;;;;;;;6.22;5.82;;;;;;;17.95;100.00;101629.75;6069581;23;20014;-67
2023/08/21 05:06:51;;;;;;;5.90;5.50;;;;;;;18.07;100.00;101659.94;6086082;23;20567;-67
2023/08/21 05:09:18;;;;;;;6.43;5.97;;;;;;;18.09;100.00;101656.19;6084752;23;20049;-67
2023/08/21 05:11:44;;;;;;;5.70;5.40;;;;;;;18.08;100.00;101659.81;6080717;23;20034;-68
2023/08/21 05:14:11;;;;;;;6.50;6.00;;;;;;;18.17;100.00;101662.81;6038853;23;20027;-67
2023/08/21 05:16:37;;;;;;;6.25;5.78;;;;;;;18.04;100.00;101634.44;6059608;23;20081;-67
2023/08/21 05:19:04;;;;;;;7.00;6.40;;;;;;;18.26;100.00;101659.50;6041948;23;20053;-68
2023/08/21 05:21:30;;;;;;;6.30;5.90;;;;;;;18.31;100.00;101665.34;6049800;23;20101;-67
2023/08/21 05:23:57;;;;;;;6.68;6.13;;;;;;;18.51;100.00;101680.75;6091900;23;20089;-67
2023/08/21 05:26:23;;;;;;;7.00;6.60;;;;;;;18.86;100.00;101672.13;6088896;23;20112;-67
2023/08/21 05:28:50;;;;;;;5.95;5.55;;;;;;;18.95;100.00;101628.06;6061430;23;20046;-66
2023/08/21 05:31:16;;;;;;;7.35;6.85;;;;;;;19.70;100.00;101669.53;6086384;23;20014;-66
2023/08/21 05:33:42;;;;;;;6.00;5.65;;;;;;;20.23;100.00;101659.28;6089366;23;20013;-69
2023/08/21 05:36:09;;;;;;;6.38;5.97;;;;;;;20.76;100.00;101640.03;6089328;23;20037;-67
2023/08/21 05:38:35;;;;;;;6.72;6.05;;;;;;;20.91;100.00;101540.06;6090443;23;20016;-69
2023/08/21 05:41:02;;;;;;;7.18;6.45;;;;;;;21.59;98.69;101570.97;6062484;23;20022;-67
2023/08/21 05:43:28;;;;;;;6.70;6.30;;;;;;;21.86;94.10;101535.69;6093533;23;20029;-67
2023/08/21 05:45:55;;;;;;;8.52;5.85;;;;;;;22.19;91.97;101510.50;6088317;23;20056;-66
2023/08/21 05:48:21;;;;;;;7.03;6.38;;;;;;;22.20;87.53;101431.97;6090848;23;20591;-67
2023/08/21 05:50:51;;;;;;;6.05;5.65;;;;;;;22.69;84.39;101432.91;6088133;23;20037;-66
2023/08/21 05:53:18;;;;;;;6.55;6.05;;;;;;;22.88;82.94;101404.44;6064514;23;20018;-68
2023/08/21 05:55:45;;;;;;;6.85;6.35;;;;;;;22.90;80.58;101365.81;6041017;23;20022;-67
2023/08/21 05:58:11;;;;;;;6.63;6.13;;;;;;;22.62;79.74;101321.25;6085271;23;20069;-67
2023/08/21 06:00:39;;;;;;;6.60;6.13;;;;;;;22.56;78.48;101303.91;6062239;23;20108;-67
2023/08/21 06:03:05;;;;;;;8.55;6.18;;;;;;;22.28;78.49;101293.13;6058177;23;20026;-67
2023/08/21 06:05:32;;;;;;;6.70;6.20;;;;;;;22.10;79.96;101318.84;6088257;23;20465;-67
2023/08/21 06:07:58;;;;;;;6.60;6.10;;;;;;;21.94;81.07;101311.38;6087449;23;20038;-67
2023/08/21 06:10:25;;;;;;;6.93;6.28;;;;;;;22.05;80.99;101324.63;6086134;23;20095;-67
2023/08/21 06:12:51;;;;;;;6.30;5.80;;;;;;;22.19;80.05;101341.22;6065029;23;20033;-67
2023/08/21 06:15:18;;;;;;;6.80;6.22;;;;;;;22.28;80.37;101351.09;6067410;23;20089;-67
2023/08/21 06:17:44;;;;;;;6.70;6.10;;;;;;;22.25;80.30;101341.53;6087805;23;20095;-67
2023/08/21 06:20:13;;;;;;;6.38;5.88;;;;;;;22.30;80.24;101341.94;6057141;23;20034;-67
2023/08/21 06:22:40;;;;;;;6.75;6.22;;;;;;;22.20;80.47;101338.41;6087731;23;20410;-67
2023/08/21 06:25:09;;;;;;;6.90;6.13;;;;;;;22.21;79.67;101353.47;6066776;23;20026;-67
2023/08/21 06:27:35;;;;;;;6.60;6.00;;;;;;;22.21;81.08;101374.84;6060815;23;20639;-67
2023/08/21 06:30:21;;;;;;;6.68;6.18;;;;;;;22.23;80.46;101364.88;6089396;23;20049;-67
2023/08/21 06:32:48;;;;;;;8.15;6.03;;;;;;;22.43;80.70;101392.50;6068268;23;20051;-67
2023/08/21 06:35:17;;;;;;;6.65;6.15;;;;;;;22.62;79.65;101383.59;6068291;23;20109;-66
2023/08/21 06:37:43;;;;;;;6.85;6.35;;;;;;;22.83;80.10;101391.50;6059197;23;20022;-67
2023/08/21 06:40:11;;;;;;;7.13;6.30;;;;;;;22.94;77.75;101357.50;6014151;23;20022;-68
2023/08/21 06:42:37;;;;;;;6.70;6.20;;;;;;;22.96;77.56;101348.34;6081622;23;20030;-67
2023/08/21 06:45:05;;;;;;;7.47;6.70;;;;;;;22.57;77.94;101297.59;6087420;23;20025;-67
2023/08/21 06:47:32;;;;;;;7.38;6.60;;;;;;;22.49;77.72;101306.34;6066402;23;20081;-67
2023/08/21 06:50:00;;;;;;;6.80;6.30;;;;;;;22.61;78.24;101347.16;6060475;23;20021;-67
2023/08/21 06:52:26;;;;;;;7.13;6.50;;;;;;;21.77;78.07;101211.38;6059456;23;20018;-68
2023/08/21 06:54:53;;;;;;;8.88;6.60;;;;;;;22.83;77.66;101362.03;6059846;23;20038;-68
2023/08/21 06:57:19;;;;;;;7.18;6.47;;;;;;;22.84;77.56;101360.22;6077890;23;20021;-67
2023/08/21 06:59:46;;;;;;;6.93;6.43;;;;;;;22.82;76.68;101319.38;6090275;23;20042;-67
2023/08/21 07:02:12;;;;;;;6.68;6.18;;;;;;;22.87;76.57;101359.91;6083410;23;20101;-66
2023/08/21 07:04:39;;;;;;;7.50;6.90;;;;;;;22.56;77.17;101319.97;6088404;23;20048;-67
2023/08/21 07:07:05;;;;;;;7.28;6.57;;;;;;;22.41;76.98;101292.84;6059151;23;20050;-67
2023/08/21 07:09:32;;;;;;;7.18;6.65;;;;;;;22.94;77.78;101381.59;6007785;23;20046;-68
2023/08/21 07:11:58;;;;;;;7.20;6.60;;;;;;;22.97;75.96;101339.31;6057738;23;20028;-66
2023/08/21 07:14:25;;;;;;;6.50;6.00;;;;;;;22.83;76.27;101343.31;6090118;23;20033;-66
2023/08/21 07:16:51;;;;;;;7.05;6.50;;;;;;;23.23;76.70;101397.59;6067282;23;20022;-67
2023/08/21 07:19:18;;;;;;;7.20;6.60;;;;;;;23.40;74.98;101375.41;6090466;23;20017;-66
2023/08/21 07:21:44;;;;;;;7.22;6.68;;;;;;;23.47;74.34;101371.19;6085655;23;20112;-69
2023/08/21 07:24:11;;;;;;;7.07;6.25;;;;;;;23.32;73.61;101315.56;6089821;23;20084;-67
2023/08/21 07:26:37;;;;;;;7.57;6.78;;;;;;;23.56;73.13;101350.69;6078423;23;20078;-67
2023/08/21 07:29:04;;;;;;;6.70;6.20;;;;;;;23.69;73.66;101367.25;6057988;23;20032;-67
2023/08/21 07:31:31;;;;;;;6.85;6.35;;;;;;;23.66;73.03;101346.09;6047059;23;20662;-67
2023/08/21 07:33:57;;;;;;;6.75;6.25;;;;;;;23.58;72.10;101316.53;6042753;23;20029;-67
2023/08/21 07:36:24;;;;;;;7.05;6.55;;;;;;;23.94;71.68;101347.94;6031391;23;20026;-67
2023/08/21 07:38:50;;;;;;;7.32;6.70;;;;;;;24.01;71.36;101341.81;6056072;23;20109;-68
2023/08/21 07:41:17;;;;;;;11.27;6.50;;;;;;;23.78;71.08;101319.13;6058102;23;20020;-68
2023/08/21 07:43:44;;;;;;;7.13;6.63;;;;;;;23.71;71.35;101316.16;6057456;23;20272;-67
2023/08/21 07:46:21;;;;;;;6.95;6.45;;;;;;;24.14;71.82;101386.19;6056532;23;20026;-66
2023/08/21 07:48:50;;;;;;;7.35;6.75;;;;;;;24.19;71.53;101373.16;6055599;23;20037;-69
2023/08/21 07:51:16;;;;;;;7.28;6.68;;;;;;;23.22;72.18;101251.31;6062628;23;20071;-67
2023/08/21 07:53:42;;;;;;;7.40;6.80;;;;;;;24.03;71.46;101368.47;6059442;23;20028;-67
2023/08/21 07:56:09;;;;;;;13.25;6.95;;;;;;;23.62;72.38;101363.47;6086288;23;20045;-67
2023/08/21 07:58:35;;;;;;;8.15;7.35;;;;;;;23.50;73.04;101373.53;6080415;23;20057;-67
2023/08/21 08:01:04;;;;;;;7.78;7.03;;;;;;;23.75;71.99;101360.44;6084030;23;20049;-67
2023/08/21 08:03:31;;;;;;;7.43;6.82;;;;;;;23.89;72.48;101384.09;6086405;23;20041;-66
2023/08/21 08:05:58;;;;;;;7.38;6.78;;;;;;;24.11;71.09;101357.00;6081014;23;20025;-66
2023/08/21 08:08:25;;;;;;;7.20;6.53;;;;;;;24.21;71.45;101400.66;6085076;23;20465;-67
2023/08/21 08:10:52;;;;;;;7.30;6.60;;;;;;;24.38;70.56;101367.66;6084134;23;20033;-66
2023/08/21 08:13:18;;;;;;;7.72;7.10;;;;;;;24.38;69.47;101351.56;6032877;23;20093;-65
2023/08/21 08:15:45;;;;;;;7.45;6.63;;;;;;;24.20;69.99;101350.72;6054531;23;20034;-68
2023/08/21 08:18:12;;;;;;;7.22;6.57;;;;;;;24.43;69.32;101341.19;6084953;23;20014;-66
2023/08/21 08:20:39;;;;;;;7.82;6.93;;;;;;;24.71;68.59;101349.16;6082522;23;20020;-66
2023/08/21 08:23:06;;;;;;;7.22;6.72;;;;;;;24.88;68.17;101352.81;6060200;23;20022;-67
2023/08/21 08:25:33;;;;;;;11.05;7.10;;;;;;;24.65;66.67;101259.34;6058008;23;20030;-68
2023/08/21 08:27:59;;;;;;;13.07;7.07;;;;;;;24.11;65.87;101147.81;6051964;23;20488;-67
2023/08/21 08:30:29;;;;;;;10.40;7.07;;;;;;;24.74;67.43;101308.59;6059920;23;20034;-68
2023/08/21 08:32:56;;;;;;;7.53;6.82;;;;;;;24.85;66.88;101312.84;6064844;23;22283;-69
2023/08/21 08:35:22;;;;;;;9.43;7.20;;;;;;;24.79;67.41;101308.94;6053288;23;20022;-67
2023/08/21 08:37:49;;;;;;;7.72;7.15;;;;;;;24.70;66.14;101250.84;6032989;23;20036;-68
2023/08/21 08:40:15;;;;;;;8.75;7.28;;;;;;;24.87;66.27;101273.25;6056487;23;20056;-67
2023/08/21 08:42:42;;;;;;;8.40;7.60;;;;;;;24.38;65.20;101146.81;6062508;23;20039;-66
2023/08/21 08:45:12;;;;;;;7.65;7.05;;;;;;;25.35;65.11;101290.59;6063485;23;20022;-66
2023/08/21 08:47:40;;;;;;;8.10;7.18;;;;;;;25.55;64.11;101277.75;6067784;23;20096;-66
2023/08/21 08:50:10;;;;;;;7.45;6.90;;;;;;;25.72;63.62;101289.38;6062508;23;20029;-66
2023/08/21 08:52:38;;;;;;;7.97;7.30;;;;;;;25.58;63.48;101244.31;6068281;23;20030;-67
2023/08/21 08:55:07;;;;;;;7.82;6.95;;;;;;;25.76;62.54;101247.72;6063792;23;20028;-66
2023/08/21 08:57:34;;;;;;;7.90;7.18;;;;;;;25.73;62.91;101245.34;6067739;23;20019;-66
2023/08/21 09:00:01;;;;;;;11.88;7.13;;;;;;;25.69;62.31;101227.88;6033892;23;20057;-67
2023/08/21 09:02:28;;;;;;;7.60;6.88;;;;;;;26.20;61.89;101279.72;6065733;23;20018;-69
2023/08/21 09:04:54;;;;;;;7.70;7.20;;;;;;;26.21;60.64;101218.66;6068136;23;20110;-67
2023/08/21 09:07:21;;;;;;;8.65;7.05;;;;;;;26.33;60.26;101240.69;6033258;23;20513;-66
2023/08/21 09:09:49;;;;;;;7.22;6.55;;;;;;;26.40;60.96;101265.88;6044379;23;20027;-67
2023/08/21 09:12:17;;;;;;;7.65;7.05;;;;;;;26.38;60.59;101238.28;6073447;23;20099;-66
2023/08/21 09:14:44;;;;;;;7.70;6.80;;;;;;;26.73;60.23;101277.47;6056579;23;20470;-67
2023/08/21 09:17:11;;;;;;;7.78;7.07;;;;;;;26.90;59.64;101266.66;6079854;23;20092;-67
2023/08/21 09:19:38;;;;;;;7.90;7.20;;;;;;;26.70;60.14;101250.03;6058741;23;20035;-67
2023/08/21 09:22:12;;;;;;;8.15;6.80;;;;;;;26.55;61.08;101287.56;6048132;23;20018;-67
2023/08/21 09:24:39;;;;;;;7.32;6.63;;;;;;;25.87;60.44;101188.22;6083663;23;20037;-67
2023/08/21 09:27:16;;;;;;;9.35;6.68;;;;;;;26.49;60.45;101267.56;6083114;23;20690;-67
2023/08/21 09:29:46;;;;;;;6.95;6.47;;;;;;;26.71;59.10;101239.09;6085365;23;20018;-68
2023/08/21 09:32:12;;;;;;;7.43;6.82;;;;;;;26.65;59.37;101251.41;6084469;23;20014;-66
2023/08/21 09:34:39;;;;;;;7.25;6.65;;;;;;;26.69;58.63;101224.16;6061283;23;20665;-69
2023/08/21 09:37:07;;;;;;;8.27;6.18;;;;;;;26.65;59.10;101256.78;6079849;23;20033;-68
2023/08/21 09:39:35;;;;;;;6.88;6.47;;;;;;;26.84;58.49;101235.84;6083047;23;20102;-68
2023/08/21 09:42:08;;;;;;;8.50;7.57;;;;;;;26.56;56.51;101101.66;6046474;23;20450;-69
2023/08/21 09:44:37;;;;;;;7.07;6.57;;;;;;;26.93;57.36;101199.81;6033353;23;20061;-68
2023/08/21 09:47:07;;;;;;;7.05;6.55;;;;;;;26.87;57.14;101173.56;6031792;23;20057;-68
2023/08/21 09:49:34;;;;;;;7.10;6.65;;;;;;;27.10;57.01;101203.25;6053042;23;20026;-69
2023/08/21 09:52:01;;;;;;;6.82;6.43;;;;;;;27.12;55.75;101138.41;6030571;23;20623;-71
2023/08/21 09:54:28;;;;;;;7.18;6.68;;;;;;;27.35;55.56;101195.91;6053989;23;20024;-69
2023/08/21 09:56:55;;;;;;;8.82;7.53;;;;;;;27.25;55.60;101171.03;6023670;23;20085;-70
2023/08/21 09:59:23;;;;;;;7.20;6.55;;;;;;;26.96;56.36;101204.84;6036255;23;20031;-70
2023/08/21 10:01:51;;;;;;;6.68;6.28;;;;;;;26.93;56.49;101197.09;6028840;23;20022;-69
2023/08/21 10:04:20;;;;;;;7.57;6.80;;;;;;;27.02;56.12;101198.75;6045887;23;20018;-68
2023/08/21 10:06:48;;;;;;;9.05;6.80;;;;;;;26.31;55.85;101067.78;6086354;23;20049;-69
2023/08/21 10:09:15;;;;;;;7.97;7.15;;;;;;;26.24;57.12;101172.56;6086256;23;20018;-68
2023/08/21 10:11:43;;;;;;;8.30;6.88;;;;;;;26.84;57.05;101265.47;6060547;23;20016;-68
2023/08/21 10:14:11;;;;;;;7.07;6.57;;;;;;;26.89;55.48;101160.78;6085129;23;20032;-68
2023/08/21 10:16:37;;;;;;;7.70;6.95;;;;;;;26.86;56.14;101217.66;6089778;23;20085;-69
2023/08/21 10:19:08;;;;;;;7.32;6.72;;;;;;;26.99;56.44;101234.13;6088515;23;20109;-69
2023/08/21 10:21:37;;;;;;;7.20;6.57;;;;;;;27.11;56.09;101229.19;6088173;23;20606;-70
2023/08/21 10:24:03;;;;;;;7.20;6.70;;;;;;;27.69;54.63;101220.78;6086697;23;20025;-68
2023/08/21 10:26:30;;;;;;;8.15;7.28;;;;;;;27.08;55.63;101204.44;6084188;23;20093;-68
2023/08/21 10:29:07;;;;;;;7.28;6.68;;;;;;;27.78;54.77;101241.28;6072308;23;20025;-69
2023/08/21 10:31:34;;;;;;;7.28;6.70;;;;;;;28.16;54.24;101263.75;6063877;23;20018;-68
2023/08/21 10:34:03;;;;;;;8.10;7.47;;;;;;;27.53;53.69;101125.53;6058541;23;20062;-69
2023/08/21 10:36:42;;;;;;;7.30;6.70;;;;;;;28.18;53.17;101237.41;6056289;23;20049;-69
2023/08/21 10:39:13;;;;;;;9.82;7.05;;;;;;;27.06;55.06;101172.28;6055657;23;20047;-69
2023/08/21 10:41:39;;;;;;;8.82;6.88;;;;;;;27.53;55.31;101284.59;6056028;23;20107;-68
2023/08/21 10:44:06;;;;;;;8.40;6.80;;;;;;;27.49;54.70;101221.25;6049976;23;20022;-69
2023/08/21 10:46:50;;;;;;;6.88;6.38;;;;;;;27.80;55.61;101315.63;6056685;23;20030;-68
2023/08/21 10:49:16;;;;;;;6.88;6.38;;;;;;;28.51;53.06;101279.50;6040730;23;20026;-69
2023/08/21 10:51:43;;;;;;;7.18;6.63;;;;;;;27.04;52.37;100959.66;6060386;23;20471;-69
2023/08/21 10:54:11;;;;;;;8.10;7.10;;;;;;;28.63;52.52;101238.34;6032136;23;20025;-70
2023/08/21 10:56:38;;;;;;;7.20;6.60;;;;;;;28.81;51.60;101253.34;6056569;23;20094;-69
2023/08/21 10:59:04;;;;;;;7.55;6.75;;;;;;;29.00;50.97;101231.16;6064786;23;20025;-69
2023/08/21 11:01:46;;;;;;;7.03;6.53;;;;;;;29.06;50.32;101209.81;6059803;23;20025;-69
2023/08/21 11:04:12;;;;;;;7.43;6.63;;;;;;;29.00;50.70;101190.63;6072384;23;20501;-69
2023/08/21 11:06:39;;;;;;;10.30;6.85;;;;;;;28.97;50.24;101171.25;6058647;23;20075;-69
2023/08/21 11:09:12;;;;;;;7.40;6.80;;;;;;;28.51;52.43;101225.50;6058767;23;20426;-69
2023/08/21 11:11:39;;;;;;;7.70;7.00;;;;;;;28.79;51.10;101217.59;6070501;23;20379;-69
2023/08/21 11:14:05;;;;;;;7.40;6.95;;;;;;;28.90;50.96;101211.69;6057213;23;20022;-69
2023/08/21 11:16:32;;;;;;;7.35;6.75;;;;;;;28.63;51.31;101194.31;6027440;23;20098;-69
2023/08/21 11:19:03;;;;;;;7.57;6.97;;;;;;;27.93;51.23;101104.63;6068769;23;20025;-70
2023/08/21 11:21:29;;;;;;;12.45;6.78;;;;;;;27.70;51.89;101095.72;6087441;23;20014;-69
2023/08/21 11:23:56;;;;;;;7.50;6.90;;;;;;;27.39;53.27;101153.28;6078806;23;20025;-69